sensor_id;sensor_type;location;lat;lon;timestamp;P1;durP1;ratioP1;P2;durP2;ratioP2
41927;SDS011;27616;51.420;6.788;2023-02-03T00:00:51;22.30;;;12.63;;
41927;SDS011;27616;51.420;6.788;2023-02-03T00:03:16;20.27;;;12.77;;
41927;SDS011;27616;51.420;6.788;2023-02-03T00:05:42;22.67;;;13.13;;
41927;SDS011;27616;51.420;6.788;2023-02-03T00:08:08;23.40;;;13.03;;
41927;SDS011;27616;51.420;6.788;2023-02-03T00:10:34;20.63;;;12.70;;
41927;SDS011;27616;51.420;6.788;2023-02-03T00:13:03;25.73;;;14.13;;
41927;SDS011;27616;51.420;6.788;2023-02-03T00:15:28;25.40;;;13.50;;
41927;SDS011;27616;51.420;6.788;2023-02-03T00:17:54;24.40;;;13.60;;
41927;SDS011;27616;51.420;6.788;2023-02-03T00:20:20;23.30;;;13.00;;
41927;SDS011;27616;51.420;6.788;2023-02-03T00:22:45;24.87;;;12.60;;
41927;SDS011;27616;51.420;6.788;2023-02-03T00:25:11;27.77;;;14.37;;
41927;SDS011;27616;51.420;6.788;2023-02-03T00:27:37;22.27;;;13.37;;
41927;SDS011;27616;51.420;6.788;2023-02-03T00:30:03;21.63;;;11.77;;
41927;SDS011;27616;51.420;6.788;2023-02-03T00:32:29;25.07;;;13.07;;
41927;SDS011;27616;51.420;6.788;2023-02-03T00:34:54;21.77;;;13.23;;
41927;SDS011;27616;51.420;6.788;2023-02-03T00:37:20;18.57;;;12.53;;
41927;SDS011;27616;51.420;6.788;2023-02-03T00:39:47;22.10;;;13.07;;
41927;SDS011;27616;51.420;6.788;2023-02-03T00:42:14;25.13;;;12.57;;
41927;SDS011;27616;51.420;6.788;2023-02-03T00:44:39;21.30;;;13.27;;
41927;SDS011;27616;51.420;6.788;2023-02-03T00:47:05;28.37;;;13.17;;
41927;SDS011;27616;51.420;6.788;2023-02-03T00:49:31;20.30;;;14.20;;
41927;SDS011;27616;51.420;6.788;2023-02-03T00:51:57;22.60;;;13.43;;
41927;SDS011;27616;51.420;6.788;2023-02-03T00:54:23;25.07;;;12.63;;
41927;SDS011;27616;51.420;6.788;2023-02-03T00:56:49;24.03;;;14.00;;
41927;SDS011;27616;51.420;6.788;2023-02-03T00:59:14;23.90;;;12.13;;
41927;SDS011;27616;51.420;6.788;2023-02-03T01:01:40;30.23;;;13.13;;
41927;SDS011;27616;51.420;6.788;2023-02-03T01:04:06;21.37;;;12.60;;
41927;SDS011;27616;51.420;6.788;2023-02-03T01:06:32;25.07;;;12.50;;
41927;SDS011;27616;51.420;6.788;2023-02-03T01:08:58;20.03;;;12.07;;
41927;SDS011;27616;51.420;6.788;2023-02-03T01:11:26;20.87;;;12.73;;
41927;SDS011;27616;51.420;6.788;2023-02-03T01:13:53;22.23;;;12.23;;
41927;SDS011;27616;51.420;6.788;2023-02-03T01:16:22;24.05;;;12.32;;
41927;SDS011;27616;51.420;6.788;2023-02-03T01:18:49;19.93;;;11.97;;
41927;SDS011;27616;51.420;6.788;2023-02-03T01:21:16;21.83;;;11.83;;
41927;SDS011;27616;51.420;6.788;2023-02-03T01:23:44;20.05;;;11.23;;
41927;SDS011;27616;51.420;6.788;2023-02-03T01:26:11;26.23;;;12.60;;
41927;SDS011;27616;51.420;6.788;2023-02-03T01:28:39;20.13;;;10.88;;
41927;SDS011;27616;51.420;6.788;2023-02-03T01:31:16;18.50;;;10.90;;
41927;SDS011;27616;51.420;6.788;2023-02-03T01:33:43;27.23;;;11.97;;
41927;SDS011;27616;51.420;6.788;2023-02-03T01:36:14;20.30;;;11.40;;
41927;SDS011;27616;51.420;6.788;2023-02-03T01:38:40;18.90;;;10.63;;
41927;SDS011;27616;51.420;6.788;2023-02-03T01:41:09;19.67;;;11.47;;
41927;SDS011;27616;51.420;6.788;2023-02-03T01:43:42;19.87;;;11.50;;
41927;SDS011;27616;51.420;6.788;2023-02-03T01:49:04;20.77;;;10.50;;
41927;SDS011;27616;51.420;6.788;2023-02-03T01:51:39;23.17;;;10.77;;
41927;SDS011;27616;51.420;6.788;2023-02-03T01:54:06;18.10;;;10.10;;
41927;SDS011;27616;51.420;6.788;2023-02-03T01:56:38;17.10;;;9.90;;
41927;SDS011;27616;51.420;6.788;2023-02-03T01:59:06;20.43;;;10.00;;
41927;SDS011;27616;51.420;6.788;2023-02-03T02:01:32;20.17;;;10.10;;
41927;SDS011;27616;51.420;6.788;2023-02-03T02:04:00;21.97;;;10.47;;
41927;SDS011;27616;51.420;6.788;2023-02-03T02:06:26;19.53;;;9.80;;
41927;SDS011;27616;51.420;6.788;2023-02-03T02:08:52;20.40;;;10.40;;
41927;SDS011;27616;51.420;6.788;2023-02-03T02:11:19;17.40;;;9.63;;
41927;SDS011;27616;51.420;6.788;2023-02-03T02:13:46;21.00;;;10.73;;
41927;SDS011;27616;51.420;6.788;2023-02-03T02:16:18;18.20;;;9.70;;
41927;SDS011;27616;51.420;6.788;2023-02-03T02:19:00;18.60;;;9.20;;
41927;SDS011;27616;51.420;6.788;2023-02-03T02:22:38;17.17;;;9.30;;
41927;SDS011;27616;51.420;6.788;2023-02-03T02:27:43;17.07;;;9.17;;
41927;SDS011;27616;51.420;6.788;2023-02-03T02:33:18;20.17;;;9.27;;
41927;SDS011;27616;51.420;6.788;2023-02-03T02:36:02;17.83;;;8.53;;
41927;SDS011;27616;51.420;6.788;2023-02-03T02:38:47;16.57;;;8.80;;
41927;SDS011;27616;51.420;6.788;2023-02-03T02:41:26;21.47;;;9.43;;
41927;SDS011;27616;51.420;6.788;2023-02-03T02:46:47;15.93;;;7.33;;
41927;SDS011;27616;51.420;6.788;2023-02-03T02:49:27;12.93;;;6.50;;
41927;SDS011;27616;51.420;6.788;2023-02-03T02:52:02;14.00;;;7.23;;
41927;SDS011;27616;51.420;6.788;2023-02-03T02:54:30;14.40;;;7.00;;
41927;SDS011;27616;51.420;6.788;2023-02-03T02:56:58;12.10;;;5.70;;
41927;SDS011;27616;51.420;6.788;2023-02-03T02:59:28;13.80;;;6.60;;
41927;SDS011;27616;51.420;6.788;2023-02-03T03:01:55;15.90;;;6.67;;
41927;SDS011;27616;51.420;6.788;2023-02-03T03:04:22;15.53;;;6.27;;
41927;SDS011;27616;51.420;6.788;2023-02-03T03:09:28;15.83;;;6.03;;
41927;SDS011;27616;51.420;6.788;2023-02-03T03:14:35;11.83;;;5.70;;
41927;SDS011;27616;51.420;6.788;2023-02-03T03:17:06;15.10;;;5.87;;
41927;SDS011;27616;51.420;6.788;2023-02-03T03:19:35;14.52;;;5.47;;
41927;SDS011;27616;51.420;6.788;2023-02-03T03:22:04;9.77;;;5.43;;
41927;SDS011;27616;51.420;6.788;2023-02-03T03:24:35;13.15;;;5.60;;
41927;SDS011;27616;51.420;6.788;2023-02-03T03:27:17;15.70;;;5.70;;
41927;SDS011;27616;51.420;6.788;2023-02-03T03:29:56;14.80;;;5.47;;
41927;SDS011;27616;51.420;6.788;2023-02-03T03:32:32;11.77;;;5.57;;
41927;SDS011;27616;51.420;6.788;2023-02-03T03:34:59;11.20;;;5.50;;
41927;SDS011;27616;51.420;6.788;2023-02-03T03:40:01;13.00;;;5.40;;
41927;SDS011;27616;51.420;6.788;2023-02-03T03:42:59;14.43;;;5.60;;
41927;SDS011;27616;51.420;6.788;2023-02-03T03:45:38;10.17;;;4.73;;
41927;SDS011;27616;51.420;6.788;2023-02-03T03:50:52;14.63;;;5.93;;
41927;SDS011;27616;51.420;6.788;2023-02-03T03:53:22;11.17;;;4.63;;
41927;SDS011;27616;51.420;6.788;2023-02-03T03:55:51;11.68;;;4.78;;
41927;SDS011;27616;51.420;6.788;2023-02-03T03:58:20;11.57;;;5.20;;
41927;SDS011;27616;51.420;6.788;2023-02-03T04:00:49;12.53;;;5.03;;
41927;SDS011;27616;51.420;6.788;2023-02-03T04:03:21;13.47;;;5.33;;
41927;SDS011;27616;51.420;6.788;2023-02-03T04:08:15;10.67;;;4.33;;
41927;SDS011;27616;51.420;6.788;2023-02-03T04:10:41;9.10;;;4.50;;
41927;SDS011;27616;51.420;6.788;2023-02-03T04:13:07;17.67;;;4.83;;
41927;SDS011;27616;51.420;6.788;2023-02-03T04:15:34;13.77;;;5.13;;
41927;SDS011;27616;51.420;6.788;2023-02-03T04:18:00;12.53;;;4.90;;
41927;SDS011;27616;51.420;6.788;2023-02-03T04:20:27;11.20;;;4.87;;
41927;SDS011;27616;51.420;6.788;2023-02-03T04:22:53;14.07;;;4.77;;
41927;SDS011;27616;51.420;6.788;2023-02-03T04:25:19;13.47;;;4.73;;
41927;SDS011;27616;51.420;6.788;2023-02-03T04:27:45;12.73;;;5.27;;
41927;SDS011;27616;51.420;6.788;2023-02-03T04:30:11;10.10;;;4.67;;
41927;SDS011;27616;51.420;6.788;2023-02-03T04:32:37;13.33;;;5.20;;
41927;SDS011;27616;51.420;6.788;2023-02-03T04:35:03;14.00;;;4.23;;
41927;SDS011;27616;51.420;6.788;2023-02-03T04:37:30;10.37;;;4.40;;
41927;SDS011;27616;51.420;6.788;2023-02-03T04:39:56;11.80;;;4.70;;
41927;SDS011;27616;51.420;6.788;2023-02-03T04:42:22;11.73;;;5.27;;
41927;SDS011;27616;51.420;6.788;2023-02-03T04:44:49;9.10;;;4.17;;
41927;SDS011;27616;51.420;6.788;2023-02-03T04:47:14;14.03;;;4.50;;
41927;SDS011;27616;51.420;6.788;2023-02-03T04:49:40;9.10;;;4.07;;
41927;SDS011;27616;51.420;6.788;2023-02-03T04:52:06;10.90;;;4.70;;
41927;SDS011;27616;51.420;6.788;2023-02-03T04:54:32;11.97;;;4.40;;
41927;SDS011;27616;51.420;6.788;2023-02-03T04:56:58;13.13;;;5.00;;
41927;SDS011;27616;51.420;6.788;2023-02-03T04:59:25;13.33;;;4.40;;
41927;SDS011;27616;51.420;6.788;2023-02-03T05:01:51;9.07;;;3.83;;
41927;SDS011;27616;51.420;6.788;2023-02-03T05:04:16;10.23;;;3.97;;
41927;SDS011;27616;51.420;6.788;2023-02-03T05:06:42;12.30;;;3.90;;
41927;SDS011;27616;51.420;6.788;2023-02-03T05:09:08;13.87;;;3.97;;
41927;SDS011;27616;51.420;6.788;2023-02-03T05:11:34;10.27;;;3.57;;
41927;SDS011;27616;51.420;6.788;2023-02-03T05:14:00;10.80;;;4.30;;
41927;SDS011;27616;51.420;6.788;2023-02-03T05:16:25;8.80;;;3.57;;
41927;SDS011;27616;51.420;6.788;2023-02-03T05:18:51;8.33;;;3.60;;
41927;SDS011;27616;51.420;6.788;2023-02-03T05:21:17;9.27;;;3.87;;
41927;SDS011;27616;51.420;6.788;2023-02-03T05:23:43;11.83;;;3.03;;
41927;SDS011;27616;51.420;6.788;2023-02-03T05:26:08;10.17;;;3.40;;
41927;SDS011;27616;51.420;6.788;2023-02-03T05:28:34;10.60;;;3.43;;
41927;SDS011;27616;51.420;6.788;2023-02-03T05:31:00;9.47;;;3.10;;
41927;SDS011;27616;51.420;6.788;2023-02-03T05:33:27;9.23;;;3.17;;
41927;SDS011;27616;51.420;6.788;2023-02-03T05:35:53;11.87;;;3.37;;
41927;SDS011;27616;51.420;6.788;2023-02-03T05:38:19;9.53;;;3.20;;
41927;SDS011;27616;51.420;6.788;2023-02-03T05:40:49;8.53;;;3.10;;
41927;SDS011;27616;51.420;6.788;2023-02-03T05:43:34;7.22;;;2.60;;
41927;SDS011;27616;51.420;6.788;2023-02-03T05:46:03;9.30;;;3.20;;
41927;SDS011;27616;51.420;6.788;2023-02-03T05:48:30;9.93;;;2.97;;
41927;SDS011;27616;51.420;6.788;2023-02-03T05:50:56;7.53;;;2.67;;
41927;SDS011;27616;51.420;6.788;2023-02-03T05:53:22;10.23;;;2.97;;
41927;SDS011;27616;51.420;6.788;2023-02-03T05:55:48;10.23;;;3.13;;
41927;SDS011;27616;51.420;6.788;2023-02-03T05:58:14;10.67;;;2.63;;
41927;SDS011;27616;51.420;6.788;2023-02-03T06:00:40;8.40;;;2.90;;
41927;SDS011;27616;51.420;6.788;2023-02-03T06:03:06;8.03;;;3.00;;
41927;SDS011;27616;51.420;6.788;2023-02-03T06:05:32;8.03;;;2.73;;
41927;SDS011;27616;51.420;6.788;2023-02-03T06:07:59;9.40;;;3.47;;
41927;SDS011;27616;51.420;6.788;2023-02-03T06:10:25;11.43;;;2.77;;
41927;SDS011;27616;51.420;6.788;2023-02-03T06:12:51;8.27;;;2.57;;
41927;SDS011;27616;51.420;6.788;2023-02-03T06:15:17;7.37;;;2.30;;
41927;SDS011;27616;51.420;6.788;2023-02-03T06:17:44;10.67;;;2.90;;
41927;SDS011;27616;51.420;6.788;2023-02-03T06:20:11;8.97;;;2.87;;
41927;SDS011;27616;51.420;6.788;2023-02-03T06:22:37;7.77;;;2.90;;
41927;SDS011;27616;51.420;6.788;2023-02-03T06:25:03;10.50;;;2.53;;
41927;SDS011;27616;51.420;6.788;2023-02-03T06:27:29;9.50;;;2.63;;
41927;SDS011;27616;51.420;6.788;2023-02-03T06:29:55;8.47;;;2.40;;
41927;SDS011;27616;51.420;6.788;2023-02-03T06:32:21;6.37;;;2.53;;
41927;SDS011;27616;51.420;6.788;2023-02-03T06:34:47;7.10;;;2.20;;
41927;SDS011;27616;51.420;6.788;2023-02-03T06:37:13;10.23;;;2.87;;
41927;SDS011;27616;51.420;6.788;2023-02-03T06:39:39;8.07;;;2.40;;
41927;SDS011;27616;51.420;6.788;2023-02-03T06:42:04;8.40;;;2.33;;
41927;SDS011;27616;51.420;6.788;2023-02-03T06:44:30;10.67;;;2.43;;
41927;SDS011;27616;51.420;6.788;2023-02-03T06:46:56;7.90;;;2.20;;
41927;SDS011;27616;51.420;6.788;2023-02-03T06:49:22;8.13;;;2.30;;
41927;SDS011;27616;51.420;6.788;2023-02-03T06:51:48;8.30;;;2.87;;
41927;SDS011;27616;51.420;6.788;2023-02-03T06:54:14;8.27;;;2.60;;
41927;SDS011;27616;51.420;6.788;2023-02-03T06:56:40;10.33;;;2.50;;
41927;SDS011;27616;51.420;6.788;2023-02-03T06:59:05;6.40;;;2.43;;
41927;SDS011;27616;51.420;6.788;2023-02-03T07:01:32;11.03;;;2.93;;
41927;SDS011;27616;51.420;6.788;2023-02-03T07:03:58;12.97;;;3.13;;
41927;SDS011;27616;51.420;6.788;2023-02-03T07:06:24;7.47;;;2.60;;
41927;SDS011;27616;51.420;6.788;2023-02-03T07:08:56;10.35;;;3.03;;
41927;SDS011;27616;51.420;6.788;2023-02-03T07:11:22;11.68;;;2.97;;
41927;SDS011;27616;51.420;6.788;2023-02-03T07:13:48;11.10;;;2.70;;
41927;SDS011;27616;51.420;6.788;2023-02-03T07:16:14;10.17;;;2.67;;
41927;SDS011;27616;51.420;6.788;2023-02-03T07:18:40;9.07;;;2.40;;
41927;SDS011;27616;51.420;6.788;2023-02-03T07:21:06;11.83;;;3.30;;
41927;SDS011;27616;51.420;6.788;2023-02-03T07:23:32;12.87;;;4.50;;
41927;SDS011;27616;51.420;6.788;2023-02-03T07:26:01;11.67;;;4.20;;
41927;SDS011;27616;51.420;6.788;2023-02-03T07:28:29;10.00;;;3.10;;
41927;SDS011;27616;51.420;6.788;2023-02-03T07:30:55;5.80;;;2.60;;
41927;SDS011;27616;51.420;6.788;2023-02-03T07:33:21;12.63;;;2.77;;
41927;SDS011;27616;51.420;6.788;2023-02-03T07:35:54;8.40;;;2.43;;
41927;SDS011;27616;51.420;6.788;2023-02-03T07:38:22;8.60;;;3.00;;
41927;SDS011;27616;51.420;6.788;2023-02-03T07:40:48;8.87;;;2.30;;
41927;SDS011;27616;51.420;6.788;2023-02-03T07:43:14;7.53;;;2.80;;
41927;SDS011;27616;51.420;6.788;2023-02-03T07:45:40;6.67;;;2.17;;
41927;SDS011;27616;51.420;6.788;2023-02-03T07:48:06;10.03;;;3.07;;
41927;SDS011;27616;51.420;6.788;2023-02-03T07:50:32;7.53;;;2.40;;
41927;SDS011;27616;51.420;6.788;2023-02-03T07:52:58;9.27;;;2.93;;
41927;SDS011;27616;51.420;6.788;2023-02-03T07:55:24;9.67;;;2.67;;
41927;SDS011;27616;51.420;6.788;2023-02-03T07:57:54;10.30;;;3.23;;
41927;SDS011;27616;51.420;6.788;2023-02-03T08:00:23;11.93;;;3.00;;
41927;SDS011;27616;51.420;6.788;2023-02-03T08:02:50;6.40;;;2.43;;
41927;SDS011;27616;51.420;6.788;2023-02-03T08:05:16;8.67;;;2.40;;
41927;SDS011;27616;51.420;6.788;2023-02-03T08:07:42;7.53;;;2.37;;
41927;SDS011;27616;51.420;6.788;2023-02-03T08:10:10;6.57;;;2.70;;
41927;SDS011;27616;51.420;6.788;2023-02-03T08:12:37;9.02;;;2.75;;
41927;SDS011;27616;51.420;6.788;2023-02-03T08:15:04;8.17;;;2.70;;
41927;SDS011;27616;51.420;6.788;2023-02-03T08:17:30;9.80;;;2.50;;
41927;SDS011;27616;51.420;6.788;2023-02-03T08:19:57;8.47;;;2.53;;
41927;SDS011;27616;51.420;6.788;2023-02-03T08:22:23;10.37;;;2.60;;
41927;SDS011;27616;51.420;6.788;2023-02-03T08:24:49;7.53;;;2.50;;
41927;SDS011;27616;51.420;6.788;2023-02-03T08:27:17;7.67;;;2.50;;
41927;SDS011;27616;51.420;6.788;2023-02-03T08:29:44;9.27;;;3.00;;
41927;SDS011;27616;51.420;6.788;2023-02-03T08:32:11;7.03;;;2.57;;
41927;SDS011;27616;51.420;6.788;2023-02-03T08:34:40;8.25;;;2.72;;
41927;SDS011;27616;51.420;6.788;2023-02-03T08:37:06;7.20;;;2.60;;
41927;SDS011;27616;51.420;6.788;2023-02-03T08:39:33;6.97;;;2.57;;
41927;SDS011;27616;51.420;6.788;2023-02-03T08:41:59;11.70;;;2.83;;
41927;SDS011;27616;51.420;6.788;2023-02-03T08:44:25;6.97;;;2.60;;
41927;SDS011;27616;51.420;6.788;2023-02-03T08:46:51;8.07;;;2.50;;
41927;SDS011;27616;51.420;6.788;2023-02-03T08:49:18;7.47;;;2.57;;
41927;SDS011;27616;51.420;6.788;2023-02-03T08:51:45;7.97;;;2.80;;
41927;SDS011;27616;51.420;6.788;2023-02-03T08:54:12;8.10;;;2.77;;
41927;SDS011;27616;51.420;6.788;2023-02-03T08:56:38;9.90;;;2.70;;
41927;SDS011;27616;51.420;6.788;2023-02-03T08:59:05;8.43;;;3.10;;
41927;SDS011;27616;51.420;6.788;2023-02-03T09:01:31;7.63;;;2.90;;
41927;SDS011;27616;51.420;6.788;2023-02-03T09:03:56;8.60;;;2.43;;
41927;SDS011;27616;51.420;6.788;2023-02-03T09:06:22;6.87;;;2.70;;
41927;SDS011;27616;51.420;6.788;2023-02-03T09:08:48;8.87;;;2.70;;
41927;SDS011;27616;51.420;6.788;2023-02-03T09:11:16;8.20;;;2.87;;
41927;SDS011;27616;51.420;6.788;2023-02-03T09:13:42;9.77;;;2.70;;
41927;SDS011;27616;51.420;6.788;2023-02-03T09:16:10;10.57;;;3.17;;
41927;SDS011;27616;51.420;6.788;2023-02-03T09:18:37;6.87;;;3.20;;
41927;SDS011;27616;51.420;6.788;2023-02-03T09:21:04;11.17;;;3.00;;
41927;SDS011;27616;51.420;6.788;2023-02-03T09:23:32;9.05;;;3.03;;
41927;SDS011;27616;51.420;6.788;2023-02-03T09:26:05;10.20;;;2.97;;
41927;SDS011;27616;51.420;6.788;2023-02-03T09:28:33;9.30;;;3.00;;
41927;SDS011;27616;51.420;6.788;2023-02-03T09:31:00;7.70;;;3.40;;
41927;SDS011;27616;51.420;6.788;2023-02-03T09:33:27;7.33;;;2.70;;
41927;SDS011;27616;51.420;6.788;2023-02-03T09:35:53;6.93;;;3.00;;
41927;SDS011;27616;51.420;6.788;2023-02-03T09:38:19;9.63;;;3.27;;
41927;SDS011;27616;51.420;6.788;2023-02-03T09:40:46;9.40;;;2.90;;
41927;SDS011;27616;51.420;6.788;2023-02-03T09:48:22;7.43;;;3.07;;
41927;SDS011;27616;51.420;6.788;2023-02-03T09:50:52;8.17;;;3.03;;
41927;SDS011;27616;51.420;6.788;2023-02-03T09:56:01;10.10;;;3.00;;
41927;SDS011;27616;51.420;6.788;2023-02-03T09:58:28;7.27;;;2.90;;
41927;SDS011;27616;51.420;6.788;2023-02-03T10:01:01;7.47;;;2.83;;
41927;SDS011;27616;51.420;6.788;2023-02-03T10:06:38;8.20;;;2.77;;
41927;SDS011;27616;51.420;6.788;2023-02-03T10:09:24;11.70;;;3.50;;
41927;SDS011;27616;51.420;6.788;2023-02-03T10:17:31;7.50;;;3.20;;
41927;SDS011;27616;51.420;6.788;2023-02-03T10:22:39;8.00;;;3.03;;
41927;SDS011;27616;51.420;6.788;2023-02-03T10:27:40;9.63;;;3.40;;
41927;SDS011;27616;51.420;6.788;2023-02-03T10:30:16;10.07;;;3.37;;
41927;SDS011;27616;51.420;6.788;2023-02-03T10:32:53;11.20;;;2.93;;
41927;SDS011;27616;51.420;6.788;2023-02-03T10:35:23;8.90;;;3.33;;
41927;SDS011;27616;51.420;6.788;2023-02-03T10:38:01;13.70;;;2.90;;
41927;SDS011;27616;51.420;6.788;2023-02-03T10:40:30;9.23;;;2.60;;
41927;SDS011;27616;51.420;6.788;2023-02-03T10:42:56;14.43;;;3.27;;
41927;SDS011;27616;51.420;6.788;2023-02-03T10:45:40;9.17;;;3.00;;
41927;SDS011;27616;51.420;6.788;2023-02-03T10:48:08;7.73;;;2.47;;
41927;SDS011;27616;51.420;6.788;2023-02-03T10:50:41;8.40;;;3.00;;
41927;SDS011;27616;51.420;6.788;2023-02-03T10:55:58;11.35;;;3.58;;
41927;SDS011;27616;51.420;6.788;2023-02-03T10:58:28;10.87;;;3.13;;
41927;SDS011;27616;51.420;6.788;2023-02-03T11:00:56;9.80;;;4.00;;
41927;SDS011;27616;51.420;6.788;2023-02-03T11:03:29;10.90;;;3.57;;
41927;SDS011;27616;51.420;6.788;2023-02-03T11:06:05;8.67;;;3.00;;
41927;SDS011;27616;51.420;6.788;2023-02-03T11:08:35;10.40;;;3.30;;
41927;SDS011;27616;51.420;6.788;2023-02-03T11:11:22;12.77;;;3.20;;
41927;SDS011;27616;51.420;6.788;2023-02-03T11:16:27;10.40;;;3.57;;
41927;SDS011;27616;51.420;6.788;2023-02-03T11:21:39;9.33;;;3.00;;
41927;SDS011;27616;51.420;6.788;2023-02-03T11:24:09;10.40;;;3.87;;
41927;SDS011;27616;51.420;6.788;2023-02-03T11:26:53;9.03;;;3.13;;
41927;SDS011;27616;51.420;6.788;2023-02-03T11:29:23;13.05;;;3.65;;
41927;SDS011;27616;51.420;6.788;2023-02-03T11:31:55;11.17;;;3.67;;
41927;SDS011;27616;51.420;6.788;2023-02-03T11:34:35;13.43;;;3.50;;
41927;SDS011;27616;51.420;6.788;2023-02-03T11:37:45;11.23;;;3.17;;
41927;SDS011;27616;51.420;6.788;2023-02-03T11:42:35;12.50;;;3.80;;
41927;SDS011;27616;51.420;6.788;2023-02-03T11:45:13;15.87;;;4.27;;
41927;SDS011;27616;51.420;6.788;2023-02-03T11:50:25;10.40;;;3.83;;
41927;SDS011;27616;51.420;6.788;2023-02-03T11:59:11;13.37;;;4.07;;
41927;SDS011;27616;51.420;6.788;2023-02-03T12:10:25;13.33;;;3.80;;
41927;SDS011;27616;51.420;6.788;2023-02-03T12:16:17;22.03;;;6.13;;
41927;SDS011;27616;51.420;6.788;2023-02-03T12:29:46;15.70;;;4.80;;
41927;SDS011;27616;51.420;6.788;2023-02-03T12:32:39;14.33;;;3.80;;
41927;SDS011;27616;51.420;6.788;2023-02-03T12:41:19;14.20;;;5.07;;
41927;SDS011;27616;51.420;6.788;2023-02-03T12:43:51;12.97;;;4.37;;
41927;SDS011;27616;51.420;6.788;2023-02-03T12:46:26;13.90;;;4.30;;
41927;SDS011;27616;51.420;6.788;2023-02-03T12:51:55;16.73;;;4.33;;
41927;SDS011;27616;51.420;6.788;2023-02-03T12:54:35;17.60;;;4.30;;
41927;SDS011;27616;51.420;6.788;2023-02-03T13:02:41;16.70;;;4.47;;
41927;SDS011;27616;51.420;6.788;2023-02-03T13:08:38;10.57;;;3.45;;
41927;SDS011;27616;51.420;6.788;2023-02-03T13:11:27;12.83;;;4.20;;
41927;SDS011;27616;51.420;6.788;2023-02-03T13:16:43;13.43;;;4.60;;
41927;SDS011;27616;51.420;6.788;2023-02-03T13:19:17;13.40;;;5.60;;
41927;SDS011;27616;51.420;6.788;2023-02-03T13:21:50;12.30;;;4.40;;
41927;SDS011;27616;51.420;6.788;2023-02-03T13:24:17;13.43;;;3.80;;
41927;SDS011;27616;51.420;6.788;2023-02-03T13:27:08;13.27;;;4.23;;
41927;SDS011;27616;51.420;6.788;2023-02-03T13:29:47;11.73;;;4.10;;
41927;SDS011;27616;51.420;6.788;2023-02-03T13:35:29;17.93;;;6.40;;
41927;SDS011;27616;51.420;6.788;2023-02-03T13:41:01;15.40;;;5.13;;
41927;SDS011;27616;51.420;6.788;2023-02-03T13:43:45;14.80;;;4.70;;
41927;SDS011;27616;51.420;6.788;2023-02-03T13:46:20;17.47;;;5.10;;
41927;SDS011;27616;51.420;6.788;2023-02-03T13:48:50;11.80;;;4.40;;
41927;SDS011;27616;51.420;6.788;2023-02-03T13:51:42;13.90;;;4.10;;
41927;SDS011;27616;51.420;6.788;2023-02-03T13:54:13;9.43;;;3.13;;
41927;SDS011;27616;51.420;6.788;2023-02-03T13:56:52;12.33;;;3.60;;
41927;SDS011;27616;51.420;6.788;2023-02-03T13:59:40;9.50;;;3.53;;
41927;SDS011;27616;51.420;6.788;2023-02-03T14:07:31;11.70;;;3.25;;
41927;SDS011;27616;51.420;6.788;2023-02-03T14:25:49;11.27;;;3.20;;
41927;SDS011;27616;51.420;6.788;2023-02-03T14:28:29;11.13;;;2.87;;
41927;SDS011;27616;51.420;6.788;2023-02-03T14:39:01;17.33;;;3.13;;
41927;SDS011;27616;51.420;6.788;2023-02-03T14:47:28;20.10;;;2.87;;
41927;SDS011;27616;51.420;6.788;2023-02-03T14:53:39;19.70;;;3.30;;
41927;SDS011;27616;51.420;6.788;2023-02-03T14:59:46;17.05;;;3.30;;
41927;SDS011;27616;51.420;6.788;2023-02-03T15:04:47;20.90;;;4.13;;
41927;SDS011;27616;51.420;6.788;2023-02-03T15:07:33;15.23;;;3.03;;
41927;SDS011;27616;51.420;6.788;2023-02-03T15:10:15;17.80;;;3.47;;
41927;SDS011;27616;51.420;6.788;2023-02-03T15:12:50;16.00;;;3.13;;
41927;SDS011;27616;51.420;6.788;2023-02-03T15:15:30;18.53;;;3.80;;
41927;SDS011;27616;51.420;6.788;2023-02-03T15:18:10;20.75;;;3.47;;
41927;SDS011;27616;51.420;6.788;2023-02-03T15:20:52;22.73;;;3.70;;
41927;SDS011;27616;51.420;6.788;2023-02-03T15:23:22;20.57;;;3.77;;
41927;SDS011;27616;51.420;6.788;2023-02-03T15:25:59;18.07;;;3.80;;
41927;SDS011;27616;51.420;6.788;2023-02-03T15:28:26;17.13;;;3.40;;
41927;SDS011;27616;51.420;6.788;2023-02-03T15:33:38;17.70;;;3.47;;
41927;SDS011;27616;51.420;6.788;2023-02-03T15:36:11;12.30;;;3.03;;
41927;SDS011;27616;51.420;6.788;2023-02-03T15:38:53;21.50;;;3.93;;
41927;SDS011;27616;51.420;6.788;2023-02-03T15:41:36;19.10;;;3.80;;
41927;SDS011;27616;51.420;6.788;2023-02-03T15:44:07;15.23;;;3.47;;
41927;SDS011;27616;51.420;6.788;2023-02-03T15:46:46;17.20;;;3.37;;
41927;SDS011;27616;51.420;6.788;2023-02-03T15:49:19;16.70;;;3.80;;
41927;SDS011;27616;51.420;6.788;2023-02-03T15:52:00;20.97;;;3.77;;
41927;SDS011;27616;51.420;6.788;2023-02-03T15:54:36;19.47;;;3.93;;
41927;SDS011;27616;51.420;6.788;2023-02-03T15:57:17;19.23;;;4.33;;
41927;SDS011;27616;51.420;6.788;2023-02-03T15:59:56;23.73;;;5.77;;
41927;SDS011;27616;51.420;6.788;2023-02-03T16:04:55;19.93;;;5.40;;
41927;SDS011;27616;51.420;6.788;2023-02-03T16:07:24;22.13;;;5.83;;
41927;SDS011;27616;51.420;6.788;2023-02-03T16:09:53;23.10;;;4.70;;
41927;SDS011;27616;51.420;6.788;2023-02-03T16:12:24;19.77;;;4.60;;
41927;SDS011;27616;51.420;6.788;2023-02-03T16:14:58;26.63;;;4.70;;
41927;SDS011;27616;51.420;6.788;2023-02-03T16:22:37;19.77;;;4.27;;
41927;SDS011;27616;51.420;6.788;2023-02-03T16:25:24;20.83;;;4.73;;
41927;SDS011;27616;51.420;6.788;2023-02-03T16:27:55;24.63;;;4.50;;
41927;SDS011;27616;51.420;6.788;2023-02-03T16:30:55;16.43;;;4.43;;
41927;SDS011;27616;51.420;6.788;2023-02-03T16:33:46;26.27;;;5.57;;
41927;SDS011;27616;51.420;6.788;2023-02-03T16:36:32;20.48;;;4.15;;
41927;SDS011;27616;51.420;6.788;2023-02-03T16:39:17;33.83;;;5.23;;
41927;SDS011;27616;51.420;6.788;2023-02-03T16:42:06;22.17;;;4.40;;
41927;SDS011;27616;51.420;6.788;2023-02-03T16:44:56;28.67;;;4.70;;
41927;SDS011;27616;51.420;6.788;2023-02-03T16:47:40;20.63;;;3.90;;
41927;SDS011;27616;51.420;6.788;2023-02-03T16:50:27;26.83;;;4.97;;
41927;SDS011;27616;51.420;6.788;2023-02-03T16:53:12;23.07;;;5.10;;
41927;SDS011;27616;51.420;6.788;2023-02-03T16:55:40;19.67;;;4.60;;
41927;SDS011;27616;51.420;6.788;2023-02-03T16:58:06;22.00;;;4.73;;
41927;SDS011;27616;51.420;6.788;2023-02-03T17:00:33;26.33;;;5.37;;
41927;SDS011;27616;51.420;6.788;2023-02-03T17:03:02;20.93;;;5.07;;
41927;SDS011;27616;51.420;6.788;2023-02-03T17:05:28;25.38;;;4.93;;
41927;SDS011;27616;51.420;6.788;2023-02-03T17:07:54;23.30;;;5.20;;
41927;SDS011;27616;51.420;6.788;2023-02-03T17:10:20;21.03;;;5.50;;
41927;SDS011;27616;51.420;6.788;2023-02-03T17:12:45;23.57;;;6.10;;
41927;SDS011;27616;51.420;6.788;2023-02-03T17:15:11;25.50;;;5.13;;
41927;SDS011;27616;51.420;6.788;2023-02-03T17:17:37;26.67;;;4.93;;
41927;SDS011;27616;51.420;6.788;2023-02-03T17:20:02;24.40;;;5.67;;
41927;SDS011;27616;51.420;6.788;2023-02-03T17:22:29;26.83;;;5.43;;
41927;SDS011;27616;51.420;6.788;2023-02-03T17:24:56;23.17;;;4.00;;
41927;SDS011;27616;51.420;6.788;2023-02-03T17:27:22;20.23;;;3.80;;
41927;SDS011;27616;51.420;6.788;2023-02-03T17:29:47;24.23;;;5.03;;
41927;SDS011;27616;51.420;6.788;2023-02-03T17:32:13;21.97;;;4.53;;
41927;SDS011;27616;51.420;6.788;2023-02-03T17:34:41;18.27;;;4.07;;
41927;SDS011;27616;51.420;6.788;2023-02-03T17:37:07;22.17;;;3.80;;
41927;SDS011;27616;51.420;6.788;2023-02-03T17:39:33;20.70;;;4.50;;
41927;SDS011;27616;51.420;6.788;2023-02-03T17:41:59;18.27;;;4.03;;
41927;SDS011;27616;51.420;6.788;2023-02-03T17:44:25;24.50;;;3.50;;